createdAt,value
2022-11-27T17:17:58.929Z,6.52
2022-11-27T17:18:58.803Z,6.52
2022-11-27T17:19:58.777Z,6.54
2022-11-27T17:20:58.787Z,6.51
2022-11-27T17:21:58.750Z,6.54
2022-11-27T17:22:58.736Z,6.51
2022-11-27T17:23:58.721Z,6.51
2022-11-27T17:24:58.722Z,6.49
2022-11-27T17:25:58.721Z,6.48
2022-11-27T17:26:58.686Z,6.48
2022-11-27T17:27:58.672Z,6.51
2022-11-27T17:28:58.659Z,6.51
2022-11-27T17:29:58.643Z,6.56
2022-11-27T17:30:58.641Z,6.59
2022-11-27T17:31:58.719Z,6.64
2022-11-27T17:32:58.604Z,6.63
2022-11-27T17:33:58.703Z,6.63
2022-11-27T17:34:58.585Z,6.57
2022-11-27T17:35:58.564Z,6.62
2022-11-27T17:36:58.569Z,6.59
2022-11-27T17:37:58.539Z,6.57
2022-11-27T17:38:58.535Z,6.59
2022-11-27T17:39:58.516Z,6.59
2022-11-27T17:40:58.522Z,6.62
2022-11-27T17:41:58.568Z,6.60
2022-11-27T17:42:58.480Z,6.60
2022-11-27T17:43:58.479Z,6.59
2022-11-27T17:44:58.458Z,6.59
2022-11-27T17:45:58.478Z,6.57
2022-11-27T17:46:58.453Z,6.54
2022-11-27T17:47:58.415Z,6.49
2022-11-27T17:48:58.406Z,6.49
2022-11-27T17:49:58.622Z,6.51
2022-11-27T17:50:58.390Z,6.57
2022-11-27T17:52:01.824Z,6.57
2022-11-27T17:52:58.347Z,6.59
2022-11-27T17:53:58.360Z,6.59
2022-11-27T17:54:58.333Z,6.59
2022-11-27T17:55:58.320Z,6.63
2022-11-27T17:56:58.327Z,6.64
2022-11-27T17:57:58.281Z,6.66
2022-11-27T17:58:58.289Z,6.63
2022-11-27T17:59:58.309Z,6.63
2022-11-27T18:00:58.346Z,6.64
2022-11-27T18:01:58.384Z,6.66
2022-11-27T18:02:58.675Z,6.67
2022-11-27T18:03:58.212Z,6.64
2022-11-27T18:04:58.198Z,6.67
2022-11-27T18:05:58.304Z,6.69
2022-11-27T18:06:58.204Z,6.75
2022-11-27T18:07:58.211Z,6.77
2022-11-27T18:08:58.305Z,6.74
2022-11-27T18:09:58.215Z,6.78
2022-11-27T18:10:58.116Z,6.75
2022-11-27T18:11:58.120Z,6.69
2022-11-27T18:12:58.107Z,6.69
2022-11-27T18:13:58.086Z,6.66
2022-11-27T18:15:01.223Z,6.62
2022-11-27T18:15:58.059Z,6.57
2022-11-27T18:16:58.128Z,6.56
2022-11-27T18:17:58.032Z,6.57
2022-11-27T18:18:58.040Z,6.56
2022-11-27T18:19:58.076Z,6.62
2022-11-27T18:20:57.998Z,6.63
2022-11-27T18:21:58.145Z,6.59
2022-11-27T18:22:57.966Z,6.57
2022-11-27T18:24:22.582Z,6.54
2022-11-27T18:24:58.938Z,6.52
2022-11-27T18:25:57.993Z,6.54
2022-11-27T18:27:08.133Z,6.51
2022-11-27T18:27:58.901Z,6.51
2022-11-27T18:28:57.886Z,6.52
2022-11-27T18:29:57.952Z,6.54
2022-11-27T18:30:57.860Z,6.59
2022-11-27T18:31:57.932Z,6.62
2022-11-27T18:32:57.846Z,6.62
2022-11-27T18:33:57.823Z,6.62
2022-11-27T18:34:57.807Z,6.63
2022-11-27T18:35:57.791Z,6.62
2022-11-27T18:36:57.804Z,6.60
2022-11-27T18:37:57.883Z,6.62
2022-11-27T18:38:57.763Z,6.60
2022-11-27T18:39:57.775Z,6.60
2022-11-27T18:40:57.730Z,6.60
2022-11-27T18:41:57.737Z,6.64
2022-11-27T18:42:57.711Z,6.69
2022-11-27T18:43:57.739Z,6.70
2022-11-27T18:44:57.703Z,6.75
2022-11-27T18:46:06.696Z,6.78
2022-11-27T18:46:46.716Z,6.79
2022-11-27T18:47:42.576Z,6.78
2022-11-27T18:48:17.096Z,6.81
2022-11-27T18:49:17.086Z,6.75
2022-11-27T18:50:17.072Z,6.69
2022-11-27T18:51:17.055Z,6.70
2022-11-27T18:52:17.055Z,6.69
2022-11-27T18:53:17.145Z,6.64
2022-11-27T18:54:17.018Z,6.62
2022-11-27T18:55:17.005Z,6.60
2022-11-27T18:56:16.993Z,6.60
2022-11-27T18:57:16.991Z,6.62
2022-11-27T18:58:16.967Z,6.62
2022-11-27T18:59:18.021Z,6.60
2022-11-27T19:00:16.939Z,6.66
2022-11-27T19:01:17.064Z,6.63
2022-11-27T19:02:16.993Z,6.60
2022-11-27T19:03:16.901Z,6.60
2022-11-27T19:04:16.892Z,6.57
2022-11-27T19:05:16.871Z,6.59
2022-11-27T19:06:16.865Z,6.51
2022-11-27T19:07:16.940Z,6.57
2022-11-27T19:08:16.843Z,6.54
2022-11-27T19:09:16.941Z,6.57
2022-11-27T19:10:16.813Z,6.56
2022-11-27T19:11:16.797Z,6.54
2022-11-27T19:12:16.805Z,6.52
2022-11-27T19:13:16.770Z,6.57
2022-11-27T19:14:16.757Z,6.49
2022-11-27T19:15:16.744Z,6.48
2022-11-27T19:16:16.788Z,6.49
2022-11-27T19:17:16.735Z,6.46
2022-11-27T19:18:16.704Z,6.46
2022-11-27T19:20:04.381Z,6.46
2022-11-27T19:20:17.681Z,6.48
2022-11-27T19:21:16.667Z,6.45
2022-11-27T19:22:16.671Z,6.44
2022-11-27T19:23:16.641Z,6.45
2022-11-27T19:24:16.649Z,6.49
2022-11-27T19:25:16.737Z,6.56
2022-11-27T19:26:16.605Z,6.59
2022-11-27T19:27:16.589Z,6.60
2022-11-27T19:28:16.592Z,6.64
2022-11-27T19:29:16.566Z,6.62
2022-11-27T19:30:16.556Z,6.67
2022-11-27T19:31:16.660Z,6.69
2022-11-27T19:32:16.528Z,6.70
2022-11-27T19:33:16.538Z,6.63
2022-11-27T19:34:16.507Z,6.62
2022-11-27T19:35:16.498Z,6.54
2022-11-27T19:36:16.474Z,6.52
2022-11-27T19:37:24.825Z,6.45
2022-11-27T19:38:16.472Z,6.48
2022-11-27T19:39:16.441Z,6.51
2022-11-27T19:40:16.428Z,6.52
2022-11-27T19:41:16.526Z,6.51
2022-11-27T19:42:16.400Z,6.56
2022-11-27T19:43:16.403Z,6.56
2022-11-27T19:44:16.380Z,6.48
2022-11-27T19:45:16.363Z,6.42
2022-11-27T19:46:16.448Z,6.38
2022-11-27T19:47:16.333Z,6.41
2022-11-27T19:48:21.509Z,6.46
2022-11-27T19:49:16.321Z,6.46
2022-11-27T19:50:16.299Z,6.49
2022-11-27T19:51:16.286Z,6.51
2022-11-27T19:52:16.272Z,6.46
2022-11-27T19:53:16.268Z,6.54
2022-11-27T19:54:16.246Z,6.57
2022-11-27T19:55:16.233Z,6.54
2022-11-27T19:56:16.226Z,6.54
2022-11-27T19:57:16.320Z,6.54
2022-11-27T19:58:16.212Z,6.56
2022-11-27T19:59:16.183Z,6.57
2022-11-27T20:00:16.177Z,6.56
2022-11-27T20:01:16.225Z,6.60
2022-11-27T20:02:16.199Z,6.59
2022-11-27T20:03:16.156Z,6.56
2022-11-27T20:04:16.119Z,6.57
2022-11-27T20:05:16.107Z,6.63
2022-11-27T20:06:16.101Z,6.60
2022-11-27T20:07:16.186Z,6.63
2022-11-27T20:08:16.358Z,6.63
2022-11-27T20:09:16.083Z,6.56
2022-11-27T20:10:16.043Z,6.49
2022-11-27T20:11:16.034Z,6.51
2022-11-27T20:12:16.013Z,6.39
2022-11-27T20:13:16.115Z,6.39
2022-11-27T20:14:16.009Z,6.42
2022-11-27T20:15:15.977Z,6.44
2022-11-27T20:16:16.012Z,6.35
2022-11-27T20:17:15.947Z,6.39
2022-11-27T20:18:15.942Z,6.42
2022-11-27T20:19:15.992Z,6.46
2022-11-27T20:20:15.918Z,6.44
2022-11-27T20:21:15.909Z,6.45
2022-11-27T20:22:15.888Z,6.51
2022-11-27T20:23:15.887Z,6.44
2022-11-27T20:24:15.879Z,6.48
2022-11-27T20:25:20.453Z,6.46
2022-11-27T20:26:15.835Z,6.48
2022-11-27T20:27:15.829Z,6.48
2022-11-27T20:28:15.810Z,6.48
2022-11-27T20:29:15.929Z,6.39
2022-11-27T20:30:15.783Z,6.38
2022-11-27T20:31:15.834Z,6.36
2022-11-27T20:32:15.757Z,6.38
2022-11-27T20:33:15.740Z,6.41
2022-11-27T20:34:15.747Z,6.44
2022-11-27T20:35:15.718Z,6.46
2022-11-27T20:36:15.742Z,6.38
2022-11-27T20:37:15.691Z,6.31
2022-11-27T20:38:15.679Z,6.38
2022-11-27T20:39:20.840Z,6.38
2022-11-27T20:40:15.654Z,6.33
2022-11-27T20:41:15.643Z,6.35
2022-11-27T20:42:15.630Z,6.33
2022-11-27T20:43:15.613Z,6.27
2022-11-27T20:44:15.623Z,6.30
2022-11-27T20:45:20.138Z,6.28
2022-11-27T20:46:16.610Z,6.24
2022-11-27T20:47:15.561Z,6.22
2022-11-27T20:48:15.555Z,6.26
2022-11-27T20:49:15.557Z,6.28
2022-11-27T20:50:15.526Z,6.31
2022-11-27T20:51:15.516Z,6.33
2022-11-27T20:52:15.497Z,6.38
2022-11-27T20:53:15.496Z,6.44
2022-11-27T20:54:15.487Z,6.44
2022-11-27T20:55:15.460Z,6.44
2022-11-27T20:56:15.448Z,6.45
2022-11-27T20:57:15.434Z,6.41
2022-11-27T20:58:15.427Z,6.38
2022-11-27T20:59:15.427Z,6.44
2022-11-27T21:00:15.396Z,6.35
2022-11-27T21:01:15.580Z,6.28
2022-11-27T21:02:15.442Z,6.30
2022-11-27T21:03:15.357Z,6.27
2022-11-27T21:04:15.361Z,6.22
2022-11-27T21:05:15.335Z,6.20
2022-11-27T21:06:15.318Z,6.19
2022-11-27T21:07:15.371Z,6.20
2022-11-27T21:08:15.304Z,6.19
2022-11-27T21:09:15.305Z,6.19
2022-11-27T21:10:15.268Z,6.22
2022-11-27T21:11:15.269Z,6.24
2022-11-27T21:12:15.243Z,6.24
2022-11-27T21:13:15.231Z,6.17
2022-11-27T21:14:15.247Z,6.16
2022-11-27T21:15:15.204Z,6.57
2022-11-27T21:16:15.207Z,6.63
2022-11-27T21:17:15.344Z,6.54
2022-11-27T21:18:15.167Z,6.52
2022-11-27T21:19:15.166Z,6.48
2022-11-27T21:20:15.138Z,6.51
2022-11-27T21:21:15.126Z,6.46
2022-11-27T21:22:15.114Z,6.41
2022-11-27T21:23:15.099Z,6.42
2022-11-27T21:24:15.108Z,6.41
2022-11-27T21:25:15.079Z,6.45
2022-11-27T21:26:15.076Z,6.42
2022-11-27T21:27:15.055Z,6.48
2022-11-27T21:28:15.038Z,6.45
2022-11-27T21:29:15.043Z,6.44
2022-11-27T21:30:15.013Z,6.45
2022-11-27T21:31:15.058Z,6.35
2022-11-27T21:32:15.084Z,6.31
2022-11-27T21:33:15.095Z,6.33
2022-11-27T21:34:14.979Z,6.30
2022-11-27T21:35:14.948Z,6.28
2022-11-27T21:36:14.941Z,6.26
2022-11-27T21:37:14.923Z,6.22
2022-11-27T21:38:14.909Z,6.22
2022-11-27T21:39:14.910Z,6.22
2022-11-27T21:40:14.880Z,6.17
2022-11-27T21:41:14.868Z,6.17
2022-11-27T21:42:14.871Z,6.16
2022-11-27T21:43:14.858Z,6.09
2022-11-27T21:44:14.865Z,6.07
2022-11-27T21:45:14.816Z,6.05
2022-11-27T21:46:14.896Z,6.07
2022-11-27T21:47:14.853Z,6.04
2022-11-27T21:48:14.837Z,6.02
2022-11-27T21:49:14.916Z,5.98
2022-11-27T21:50:14.774Z,6.02
2022-11-27T21:51:14.736Z,5.99
2022-11-27T21:52:14.728Z,6.02
2022-11-27T21:53:14.722Z,6.01
2022-11-27T21:54:14.709Z,6.07
2022-11-27T21:55:14.709Z,6.09
2022-11-27T21:56:14.676Z,6.05
2022-11-27T21:57:14.675Z,6.05
2022-11-27T21:58:14.648Z,6.05
2022-11-27T21:59:14.648Z,5.99
2022-11-27T22:00:14.645Z,6.09
2022-11-27T22:01:14.720Z,6.04
2022-11-27T22:02:14.609Z,6.09
2022-11-27T22:03:14.589Z,6.05
2022-11-27T22:04:14.575Z,6.09
2022-11-27T22:05:14.690Z,6.12
2022-11-27T22:06:14.566Z,6.16
2022-11-27T22:07:14.562Z,6.14
2022-11-27T22:08:14.523Z,6.12
2022-11-27T22:09:16.107Z,6.12
2022-11-27T22:10:14.510Z,6.16
2022-11-27T22:11:14.483Z,6.16
2022-11-27T22:12:14.470Z,6.11
2022-11-27T22:13:14.461Z,6.12
2022-11-27T22:14:14.444Z,6.16
2022-11-27T22:15:14.454Z,6.16
2022-11-27T22:16:14.480Z,6.19
2022-11-27T22:17:14.465Z,6.16
2022-11-27T22:18:14.393Z,6.19
2022-11-27T22:19:14.741Z,6.16
2022-11-27T22:20:14.386Z,6.12
2022-11-27T22:21:14.465Z,6.09
2022-11-27T22:22:14.346Z,6.08
2022-11-27T22:23:14.326Z,6.16
2022-11-27T22:24:19.045Z,6.14
2022-11-27T22:25:14.321Z,6.08
2022-11-27T22:26:14.293Z,6.09
2022-11-27T22:27:14.277Z,6.09
2022-11-27T22:28:14.265Z,6.12
2022-11-27T22:29:14.251Z,6.12
2022-11-27T22:30:14.810Z,6.09
2022-11-27T22:31:14.369Z,6.07
2022-11-27T22:32:14.214Z,6.09
2022-11-27T22:33:14.212Z,6.11
2022-11-27T22:34:14.239Z,6.08
2022-11-27T22:35:14.196Z,6.07
2022-11-27T22:36:14.165Z,6.05
2022-11-27T22:37:14.262Z,6.04
2022-11-27T22:38:14.150Z,6.08
2022-11-27T22:39:14.130Z,6.07
2022-11-27T22:40:14.126Z,6.08
2022-11-27T22:41:14.101Z,6.08
2022-11-27T22:42:14.087Z,6.07
2022-11-27T22:43:14.073Z,6.05
2022-11-27T22:44:14.058Z,6.04
2022-11-27T22:45:14.081Z,6.02
2022-11-27T22:46:14.092Z,6.04
2022-11-27T22:47:14.030Z,5.99
2022-11-27T22:48:14.007Z,5.99
2022-11-27T22:49:13.992Z,6.01
2022-11-27T22:50:14.011Z,6.04
2022-11-27T22:51:13.985Z,6.05
2022-11-27T22:52:13.977Z,6.01
2022-11-27T22:53:14.058Z,6.01
2022-11-27T22:54:13.944Z,6.02
2022-11-27T22:55:13.918Z,6.04
2022-11-27T22:56:13.922Z,6.08
2022-11-27T22:57:13.894Z,6.05
2022-11-27T22:58:13.878Z,6.09
2022-11-27T22:59:43.748Z,6.12
2022-11-27T23:00:14.859Z,6.09
2022-11-27T23:01:13.881Z,6.17
2022-11-27T23:02:13.872Z,6.22
2022-11-27T23:03:13.912Z,6.24
2022-11-27T23:04:13.802Z,6.12
2022-11-27T23:05:13.784Z,6.19
2022-11-27T23:06:13.797Z,6.16
2022-11-27T23:07:13.834Z,6.17
2022-11-27T23:08:13.801Z,6.22
2022-11-27T23:09:13.854Z,6.24
2022-11-27T23:10:13.740Z,6.27
2022-11-27T23:11:13.753Z,6.28
2022-11-27T23:12:13.705Z,6.31
2022-11-27T23:13:13.683Z,6.27
2022-11-27T23:14:13.674Z,6.28
2022-11-27T23:15:13.661Z,6.30
2022-11-27T23:16:13.701Z,6.26
2022-11-27T23:17:13.635Z,6.30
2022-11-27T23:18:13.627Z,6.30
2022-11-27T23:19:13.646Z,6.26
2022-11-27T23:20:13.603Z,6.31
2022-11-27T23:21:13.607Z,6.38
2022-11-27T23:22:13.573Z,6.42
2022-11-27T23:23:13.559Z,6.42
2022-11-27T23:24:13.549Z,6.36
2022-11-27T23:25:13.650Z,6.38
2022-11-27T23:26:17.889Z,6.41
2022-11-27T23:27:13.506Z,6.46
2022-11-27T23:28:13.494Z,6.45
2022-11-27T23:29:13.484Z,6.45
2022-11-27T23:30:13.468Z,6.45
2022-11-27T23:31:29.371Z,6.45
2022-11-27T23:32:14.524Z,6.44
2022-11-27T23:33:13.435Z,6.42
2022-11-27T23:34:13.416Z,6.44
2022-11-27T23:35:13.409Z,6.41
2022-11-27T23:36:13.390Z,6.38
2022-11-27T23:37:13.401Z,6.35
2022-11-27T23:38:13.364Z,6.30
2022-11-27T23:39:13.365Z,6.33
2022-11-27T23:40:13.342Z,6.35
2022-11-27T23:41:13.444Z,6.35
2022-11-27T23:42:13.339Z,6.33
2022-11-27T23:43:13.304Z,6.27
2022-11-27T23:44:13.289Z,6.20
2022-11-27T23:45:13.278Z,6.20
2022-11-27T23:46:13.298Z,6.11
2022-11-27T23:47:13.265Z,6.11
2022-11-27T23:48:13.244Z,6.16
2022-11-27T23:49:13.227Z,6.14
2022-11-27T23:50:13.226Z,6.16
2022-11-27T23:51:13.216Z,6.19
2022-11-27T23:52:17.131Z,6.22
2022-11-27T23:53:13.187Z,6.26
2022-11-27T23:54:13.172Z,6.20
2022-11-27T23:55:13.151Z,6.24
2022-11-27T23:56:13.135Z,6.17
2022-11-27T23:57:13.286Z,6.16
2022-11-27T23:58:13.112Z,6.09
2022-11-27T23:59:13.101Z,6.17
